createdAt,value
2019-06-27T00:00:27.549Z,22.77
2019-06-27T00:02:56.031Z,22.75
2019-06-27T00:05:24.477Z,22.73
2019-06-27T00:07:52.986Z,22.71
2019-06-27T00:10:22.430Z,22.70
2019-06-27T00:12:50.852Z,22.68
2019-06-27T00:15:19.260Z,22.63
2019-06-27T00:17:47.691Z,22.60
2019-06-27T00:20:16.179Z,22.57
2019-06-27T00:22:44.956Z,22.55
2019-06-27T00:25:13.453Z,22.55
2019-06-27T00:27:41.860Z,22.52
2019-06-27T00:30:10.816Z,22.44
2019-06-27T00:32:39.234Z,22.39
2019-06-27T00:35:08.083Z,22.40
2019-06-27T00:37:36.509Z,22.35
2019-06-27T00:40:07.834Z,22.27
2019-06-27T00:42:36.243Z,22.20
2019-06-27T00:45:06.401Z,22.13
2019-06-27T00:47:34.813Z,22.08
2019-06-27T00:50:04.505Z,22.01
2019-06-27T00:52:33.080Z,21.96
2019-06-27T00:55:01.503Z,21.93
2019-06-27T00:57:29.990Z,21.88
2019-06-27T00:59:58.402Z,21.85
2019-06-27T01:02:26.826Z,21.85
2019-06-27T01:04:55.245Z,21.84
2019-06-27T01:07:23.654Z,21.84
2019-06-27T01:09:52.073Z,21.80
2019-06-27T01:12:20.551Z,21.80
2019-06-27T01:14:49.024Z,21.75
2019-06-27T01:17:17.445Z,21.72
2019-06-27T01:19:45.864Z,21.66
2019-06-27T01:22:14.859Z,21.61
2019-06-27T01:24:43.514Z,21.57
2019-06-27T01:27:11.956Z,21.54
2019-06-27T01:29:40.357Z,21.52
2019-06-27T01:32:08.758Z,21.53
2019-06-27T01:34:37.174Z,21.51
2019-06-27T01:37:05.588Z,21.48
2019-06-27T01:39:34.069Z,21.47
2019-06-27T01:42:02.489Z,21.48
2019-06-27T01:44:38.404Z,21.43
2019-06-27T01:47:07.506Z,21.37
2019-06-27T01:49:35.926Z,21.33
2019-06-27T01:52:04.602Z,21.29
2019-06-27T01:54:33.111Z,21.27
2019-06-27T01:57:01.964Z,21.28
2019-06-27T01:59:30.646Z,21.30
2019-06-27T02:01:59.307Z,21.29
2019-06-27T02:04:27.709Z,21.26
2019-06-27T02:06:56.201Z,21.22
2019-06-27T02:09:24.615Z,21.19
2019-06-27T02:11:53.033Z,21.18
2019-06-27T02:14:21.894Z,21.16
2019-06-27T02:16:50.322Z,21.10
2019-06-27T02:19:18.722Z,21.03
2019-06-27T02:21:47.143Z,21.01
2019-06-27T02:24:15.551Z,20.98
2019-06-27T02:26:44.354Z,20.96
2019-06-27T02:29:12.758Z,20.97
2019-06-27T02:31:41.172Z,20.95
2019-06-27T02:34:09.592Z,20.92
2019-06-27T02:36:38.013Z,20.87
2019-06-27T02:39:06.433Z,20.83
2019-06-27T02:41:35.006Z,20.81
2019-06-27T02:44:03.440Z,20.79
2019-06-27T02:46:31.996Z,20.77
2019-06-27T02:49:00.434Z,20.76
2019-06-27T02:51:28.845Z,20.75
2019-06-27T02:53:57.258Z,20.73
2019-06-27T02:56:25.683Z,20.71
2019-06-27T02:58:54.475Z,20.68
2019-06-27T03:01:22.908Z,20.66
2019-06-27T03:03:51.309Z,20.59
2019-06-27T03:06:19.724Z,20.55
2019-06-27T03:08:48.161Z,20.48
2019-06-27T03:11:16.570Z,20.41
2019-06-27T03:13:45.169Z,20.36
2019-06-27T03:16:13.561Z,20.34
2019-06-27T03:18:41.965Z,20.35
2019-06-27T03:21:10.386Z,20.35
2019-06-27T03:23:38.816Z,20.34
2019-06-27T03:26:07.219Z,20.33
2019-06-27T03:28:50.973Z,20.33
2019-06-27T03:31:05.783Z,20.31
2019-06-27T03:33:34.190Z,20.28
2019-06-27T03:36:02.640Z,20.26
2019-06-27T03:38:31.047Z,20.22
2019-06-27T03:40:59.451Z,20.19
2019-06-27T03:43:28.043Z,20.17
2019-06-27T03:45:56.477Z,20.15
2019-06-27T03:48:24.853Z,20.15
2019-06-27T03:50:56.304Z,20.14
2019-06-27T03:53:23.467Z,20.15
2019-06-27T03:55:51.948Z,20.14
2019-06-27T03:58:20.377Z,20.10
2019-06-27T04:00:48.779Z,20.09
2019-06-27T04:03:17.200Z,20.11
2019-06-27T04:05:45.611Z,20.12
2019-06-27T04:08:14.009Z,20.14
2019-06-27T04:10:42.441Z,20.16
2019-06-27T04:13:11.117Z,20.14
2019-06-27T04:15:39.515Z,20.12
2019-06-27T04:18:07.932Z,20.10
2019-06-27T04:20:36.334Z,20.08
2019-06-27T04:23:04.819Z,20.07
2019-06-27T04:25:33.534Z,20.13
2019-06-27T04:28:01.945Z,20.21
2019-06-27T04:30:30.375Z,20.26
2019-06-27T04:32:58.754Z,20.35
2019-06-27T04:35:27.188Z,20.43
2019-06-27T04:37:55.661Z,20.52
2019-06-27T04:40:24.068Z,20.62
2019-06-27T04:42:52.491Z,20.75
2019-06-27T04:45:20.898Z,20.86
2019-06-27T04:47:49.315Z,21.00
2019-06-27T04:50:17.794Z,21.10
2019-06-27T04:52:46.200Z,21.18
2019-06-27T04:55:14.629Z,21.27
2019-06-27T04:57:43.058Z,21.42
2019-06-27T05:00:14.874Z,21.54
2019-06-27T05:02:43.283Z,21.68
2019-06-27T05:05:11.695Z,21.84
2019-06-27T05:07:40.097Z,21.96
2019-06-27T05:10:08.688Z,22.05
2019-06-27T05:12:37.099Z,22.20
2019-06-27T05:15:08.595Z,22.34
2019-06-27T05:17:37.008Z,22.47
2019-06-27T05:20:06.245Z,22.59
2019-06-27T05:22:34.688Z,22.75
2019-06-27T05:25:03.071Z,23.01
2019-06-27T05:27:31.478Z,23.21
2019-06-27T05:30:09.272Z,23.16
2019-06-27T05:32:30.025Z,23.06
2019-06-27T05:34:58.435Z,22.99
2019-06-27T05:37:26.848Z,23.02
2019-06-27T05:39:55.257Z,23.01
2019-06-27T05:42:23.679Z,23.07
2019-06-27T05:44:52.092Z,23.12
2019-06-27T05:47:20.483Z,23.11
2019-06-27T05:49:48.892Z,23.19
2019-06-27T05:52:17.291Z,23.30
2019-06-27T05:54:45.720Z,23.36
2019-06-27T05:57:14.123Z,23.47
2019-06-27T05:59:42.531Z,23.67
2019-06-27T06:02:10.961Z,23.78
2019-06-27T06:04:39.366Z,23.95
2019-06-27T06:07:07.779Z,24.06
2019-06-27T06:09:36.185Z,24.25
2019-06-27T06:12:04.587Z,24.35
2019-06-27T06:14:33.360Z,24.45
2019-06-27T06:17:01.857Z,24.44
2019-06-27T06:19:30.230Z,24.52
2019-06-27T06:21:58.632Z,24.65
2019-06-27T06:24:27.042Z,24.79
2019-06-27T06:26:55.481Z,24.86
2019-06-27T06:29:23.880Z,24.92
2019-06-27T06:31:52.286Z,24.99
2019-06-27T06:34:20.720Z,25.09
2019-06-27T06:36:49.193Z,25.03
2019-06-27T06:39:17.598Z,25.14
2019-06-27T06:41:46.042Z,25.21
2019-06-27T06:44:14.530Z,25.36
2019-06-27T06:46:42.955Z,25.40
2019-06-27T06:49:11.357Z,25.55
2019-06-27T06:51:39.753Z,25.70
2019-06-27T06:54:08.186Z,25.85
2019-06-27T06:56:36.590Z,25.98
2019-06-27T06:59:04.998Z,25.93
2019-06-27T07:01:33.453Z,25.93
2019-06-27T07:04:01.858Z,26.02
2019-06-27T07:06:30.258Z,26.09
2019-06-27T07:08:58.690Z,26.17
2019-06-27T07:11:27.090Z,26.10
2019-06-27T07:13:55.491Z,26.18
2019-06-27T07:16:23.896Z,26.23
2019-06-27T07:18:52.303Z,26.28
2019-06-27T07:21:20.805Z,26.35
2019-06-27T07:23:49.254Z,26.50
2019-06-27T07:26:17.888Z,26.58
2019-06-27T07:28:46.306Z,26.56
2019-06-27T07:31:18.198Z,26.55
2019-06-27T07:33:44.865Z,26.53
2019-06-27T07:36:13.262Z,26.57
2019-06-27T07:38:41.664Z,26.25
2019-06-27T07:41:10.399Z,26.46
2019-06-27T07:43:38.815Z,26.40
2019-06-27T07:46:23.752Z,26.58
2019-06-27T07:48:37.353Z,26.70
2019-06-27T07:51:05.836Z,26.85
2019-06-27T07:53:34.240Z,26.85
2019-06-27T07:56:02.653Z,27.01
2019-06-27T07:58:31.121Z,27.09
2019-06-27T08:00:59.614Z,27.10
2019-06-27T08:03:28.019Z,27.22
2019-06-27T08:05:56.433Z,27.27
2019-06-27T08:08:24.846Z,27.26
2019-06-27T08:10:53.252Z,27.22
2019-06-27T08:13:21.656Z,27.41
2019-06-27T08:15:50.399Z,27.31
2019-06-27T08:18:18.793Z,27.36
2019-06-27T08:20:47.241Z,27.48
2019-06-27T08:23:15.936Z,27.54
2019-06-27T08:25:44.336Z,27.67
2019-06-27T08:28:12.742Z,27.70
2019-06-27T08:30:41.148Z,27.93
2019-06-27T08:33:09.546Z,28.08
2019-06-27T08:35:38.792Z,28.25
2019-06-27T08:38:07.196Z,28.13
2019-06-27T08:40:35.675Z,28.33
2019-06-27T08:43:04.125Z,28.41
2019-06-27T08:45:32.623Z,28.46
2019-06-27T08:48:00.974Z,28.55
2019-06-27T08:50:29.374Z,28.71
2019-06-27T08:53:01.147Z,28.78
2019-06-27T08:55:27.988Z,28.79
2019-06-27T08:57:56.402Z,28.85
2019-06-27T09:00:24.810Z,29.00
2019-06-27T09:02:53.237Z,29.01
2019-06-27T09:05:21.629Z,28.95
2019-06-27T09:07:50.033Z,29.07
2019-06-27T09:10:19.720Z,29.28
2019-06-27T09:12:48.109Z,29.40
2019-06-27T09:15:16.946Z,29.28
2019-06-27T09:17:46.237Z,29.33
2019-06-27T09:20:15.787Z,29.32
2019-06-27T09:22:44.191Z,29.52
2019-06-27T09:25:13.935Z,29.57
2019-06-27T09:27:42.341Z,29.59
2019-06-27T09:30:11.632Z,29.48
2019-06-27T09:32:40.034Z,29.47
2019-06-27T09:35:09.177Z,29.64
2019-06-27T09:37:37.654Z,29.79
2019-06-27T09:40:09.641Z,29.77
2019-06-27T09:42:38.075Z,29.77
2019-06-27T09:45:07.314Z,29.87
2019-06-27T09:47:35.804Z,29.98
2019-06-27T09:50:06.249Z,30.18
2019-06-27T09:52:34.649Z,30.01
2019-06-27T09:55:03.449Z,29.74
2019-06-27T09:57:31.856Z,30.13
2019-06-27T10:00:00.883Z,29.97
2019-06-27T10:02:41.004Z,30.00
2019-06-27T10:04:59.391Z,30.23
2019-06-27T10:07:28.625Z,30.47
2019-06-27T10:09:57.040Z,30.77
2019-06-27T10:12:37.987Z,30.77
2019-06-27T10:14:55.846Z,31.00
2019-06-27T10:17:24.258Z,31.05
2019-06-27T10:19:52.668Z,31.25
2019-06-27T10:22:21.153Z,30.89
2019-06-27T10:24:49.923Z,30.98
2019-06-27T10:27:18.351Z,30.65
2019-06-27T10:29:46.776Z,30.55
2019-06-27T10:32:15.199Z,30.59
2019-06-27T10:34:43.603Z,30.45
2019-06-27T10:37:12.005Z,30.44
2019-06-27T10:39:40.413Z,30.59
2019-06-27T10:42:08.815Z,30.88
2019-06-27T10:44:37.228Z,31.11
2019-06-27T10:47:05.635Z,31.14
2019-06-27T10:49:34.025Z,31.04
2019-06-27T10:52:02.469Z,30.81
2019-06-27T10:54:30.882Z,30.81
2019-06-27T10:56:59.348Z,30.58
2019-06-27T10:59:28.201Z,30.42
2019-06-27T11:01:56.603Z,30.71
2019-06-27T11:04:25.016Z,30.51
2019-06-27T11:06:53.715Z,30.84
2019-06-27T11:09:22.125Z,30.49
2019-06-27T11:11:50.585Z,30.84
2019-06-27T11:14:19.436Z,31.03
2019-06-27T11:16:47.870Z,31.13
2019-06-27T11:19:16.295Z,31.25
2019-06-27T11:21:44.755Z,31.26
2019-06-27T11:24:13.447Z,31.23
2019-06-27T11:26:41.857Z,31.44
2019-06-27T11:29:10.251Z,31.23
2019-06-27T11:31:38.676Z,31.39
2019-06-27T11:34:07.073Z,31.45
2019-06-27T11:36:35.476Z,31.53
2019-06-27T11:39:05.399Z,31.47
2019-06-27T11:41:33.802Z,31.53
2019-06-27T11:44:02.230Z,31.51
2019-06-27T11:46:30.816Z,31.69
2019-06-27T11:48:59.538Z,31.62
2019-06-27T11:51:27.969Z,31.54
2019-06-27T11:53:56.373Z,31.62
2019-06-27T11:56:25.001Z,31.37
2019-06-27T11:58:53.370Z,31.41
2019-06-27T12:01:21.774Z,31.51
2019-06-27T12:03:50.220Z,31.51
2019-06-27T12:06:18.626Z,31.63
2019-06-27T12:08:47.011Z,31.62
2019-06-27T12:11:15.415Z,31.72
2019-06-27T12:13:43.828Z,31.77
2019-06-27T12:16:12.235Z,31.60
2019-06-27T12:18:40.678Z,31.58
2019-06-27T12:21:09.077Z,31.69
2019-06-27T12:23:37.518Z,31.62
2019-06-27T12:26:05.924Z,31.68
2019-06-27T12:28:34.329Z,31.71
2019-06-27T12:31:10.272Z,31.81
2019-06-27T12:33:32.893Z,31.42
2019-06-27T12:36:01.290Z,31.41
2019-06-27T12:38:29.719Z,31.54
2019-06-27T12:40:58.191Z,31.30
2019-06-27T12:43:26.629Z,31.65
2019-06-27T12:45:55.036Z,31.90
2019-06-27T12:48:23.433Z,31.90
2019-06-27T12:50:51.848Z,31.71
2019-06-27T12:53:20.333Z,31.45
2019-06-27T12:55:49.476Z,31.32
2019-06-27T12:58:17.889Z,31.28
2019-06-27T13:00:46.290Z,31.10
2019-06-27T13:03:14.702Z,31.13
2019-06-27T13:05:43.115Z,31.11
2019-06-27T13:08:11.546Z,31.29
2019-06-27T13:10:39.951Z,31.30
2019-06-27T13:13:08.374Z,31.42
2019-06-27T13:15:36.755Z,31.55
2019-06-27T13:18:05.167Z,31.53
2019-06-27T13:20:33.821Z,31.63
2019-06-27T13:23:02.230Z,31.57
2019-06-27T13:25:34.034Z,31.56
2019-06-27T13:28:00.773Z,31.66
2019-06-27T13:30:29.174Z,31.66
2019-06-27T13:32:57.941Z,31.61
2019-06-27T13:35:26.347Z,31.51
2019-06-27T13:37:54.748Z,31.50
2019-06-27T13:40:23.227Z,31.50
2019-06-27T13:42:55.296Z,31.46
2019-06-27T13:45:21.867Z,31.42
2019-06-27T13:47:50.293Z,31.51
2019-06-27T13:50:19.545Z,31.60
2019-06-27T13:52:48.428Z,31.53
2019-06-27T13:55:16.969Z,31.49
2019-06-27T13:57:45.396Z,31.55
2019-06-27T14:00:14.642Z,31.60
2019-06-27T14:02:43.039Z,31.66
2019-06-27T14:05:11.525Z,31.67
2019-06-27T14:07:39.994Z,31.63
2019-06-27T14:10:09.067Z,31.51
2019-06-27T14:12:37.560Z,31.51
2019-06-27T14:15:08.308Z,31.58
2019-06-27T14:17:36.729Z,31.63
2019-06-27T14:20:07.542Z,31.58
2019-06-27T14:22:36.014Z,31.69
2019-06-27T14:25:06.084Z,31.74
2019-06-27T14:27:34.487Z,31.76
2019-06-27T14:30:02.965Z,31.77
2019-06-27T14:32:31.382Z,31.88
2019-06-27T14:35:14.893Z,31.89
2019-06-27T14:37:30.492Z,31.96
2019-06-27T14:39:58.898Z,32.00
2019-06-27T14:42:27.277Z,32.02
2019-06-27T14:44:55.744Z,32.21
2019-06-27T14:47:24.133Z,32.43
2019-06-27T14:49:52.546Z,32.85
2019-06-27T14:52:20.981Z,33.18
2019-06-27T14:54:49.392Z,33.39
2019-06-27T14:57:17.799Z,33.64
2019-06-27T14:59:46.222Z,33.89
2019-06-27T15:02:14.628Z,34.03
2019-06-27T15:04:43.031Z,33.61
2019-06-27T15:07:11.462Z,32.69
2019-06-27T15:09:39.865Z,32.04
2019-06-27T15:12:08.263Z,31.83
2019-06-27T15:14:36.673Z,31.45
2019-06-27T15:17:05.088Z,31.04
2019-06-27T15:19:33.486Z,30.97
2019-06-27T15:22:01.888Z,30.93
2019-06-27T15:24:30.573Z,30.72
2019-06-27T15:26:58.982Z,30.76
2019-06-27T15:29:27.410Z,30.73
2019-06-27T15:31:55.813Z,30.68
2019-06-27T15:34:24.238Z,30.68
2019-06-27T15:36:52.636Z,30.65
2019-06-27T15:39:21.407Z,30.52
2019-06-27T15:41:49.829Z,30.43
2019-06-27T15:44:20.639Z,30.36
2019-06-27T15:46:48.376Z,30.40
2019-06-27T15:49:16.779Z,30.36
2019-06-27T15:51:45.191Z,30.35
2019-06-27T15:54:13.636Z,30.35
2019-06-27T15:56:42.020Z,30.29
2019-06-27T15:59:10.430Z,30.23
2019-06-27T16:01:38.841Z,30.17
2019-06-27T16:04:07.298Z,30.21
2019-06-27T16:06:35.664Z,30.19
2019-06-27T16:09:05.103Z,30.12
2019-06-27T16:11:33.505Z,30.08
2019-06-27T16:14:01.995Z,30.07
2019-06-27T16:16:30.411Z,30.05
2019-06-27T16:18:58.837Z,30.01
2019-06-27T16:21:27.234Z,29.92
2019-06-27T16:23:55.641Z,29.82
2019-06-27T16:26:24.047Z,29.87
2019-06-27T16:28:52.484Z,29.88
2019-06-27T16:31:20.889Z,29.82
2019-06-27T16:33:49.289Z,29.82
2019-06-27T16:36:25.294Z,29.82
2019-06-27T16:38:47.835Z,29.78
2019-06-27T16:41:16.237Z,29.64
2019-06-27T16:43:44.721Z,29.59
2019-06-27T16:46:13.132Z,29.64
2019-06-27T16:48:41.517Z,29.65
2019-06-27T16:51:09.992Z,29.64
2019-06-27T16:53:38.390Z,29.58
2019-06-27T16:56:06.826Z,29.51
2019-06-27T16:58:35.223Z,29.53
2019-06-27T17:01:03.656Z,29.55
2019-06-27T17:03:32.048Z,29.42
2019-06-27T17:06:00.460Z,29.35
2019-06-27T17:08:28.895Z,29.32
2019-06-27T17:10:58.787Z,29.25
2019-06-27T17:13:27.368Z,29.21
2019-06-27T17:15:55.773Z,29.20
2019-06-27T17:18:24.172Z,29.18
2019-06-27T17:20:52.592Z,29.10
2019-06-27T17:23:20.996Z,29.05
2019-06-27T17:25:49.412Z,29.02
2019-06-27T17:28:17.883Z,28.98
2019-06-27T17:30:46.281Z,28.95
2019-06-27T17:33:14.777Z,28.87
2019-06-27T17:35:43.440Z,28.84
2019-06-27T17:38:11.831Z,28.77
2019-06-27T17:40:40.237Z,28.65
2019-06-27T17:43:08.631Z,28.58
2019-06-27T17:45:37.137Z,28.54
2019-06-27T17:48:05.543Z,28.44
2019-06-27T17:50:33.943Z,28.38
2019-06-27T17:53:02.401Z,28.29
2019-06-27T17:55:30.782Z,28.23
2019-06-27T17:57:59.184Z,28.16
2019-06-27T18:00:27.585Z,28.12
2019-06-27T18:02:55.988Z,28.00
2019-06-27T18:05:24.415Z,27.96
2019-06-27T18:07:52.819Z,27.87
2019-06-27T18:10:21.484Z,27.77
2019-06-27T18:12:49.898Z,27.64
2019-06-27T18:15:18.805Z,27.57
2019-06-27T18:17:47.244Z,27.55
2019-06-27T18:20:16.086Z,27.53
2019-06-27T18:22:44.494Z,27.35
2019-06-27T18:25:12.888Z,27.28
2019-06-27T18:27:41.290Z,27.19
2019-06-27T18:30:10.160Z,27.11
2019-06-27T18:32:38.559Z,27.01
2019-06-27T18:35:07.254Z,26.93
2019-06-27T18:37:35.684Z,26.80
2019-06-27T18:40:05.432Z,26.75
2019-06-27T18:42:33.817Z,26.71
2019-06-27T18:45:02.582Z,26.61
2019-06-27T18:47:30.984Z,26.44
2019-06-27T18:49:59.404Z,26.35
2019-06-27T18:52:27.852Z,26.25
2019-06-27T18:54:56.358Z,26.16
2019-06-27T18:57:24.761Z,26.11
2019-06-27T18:59:53.878Z,25.94
2019-06-27T19:02:22.383Z,25.81
2019-06-27T19:04:50.786Z,25.74
2019-06-27T19:07:19.190Z,25.63
2019-06-27T19:09:47.601Z,25.51
2019-06-27T19:12:19.106Z,25.37
2019-06-27T19:14:46.136Z,25.24
2019-06-27T19:17:14.553Z,25.14
2019-06-27T19:19:44.589Z,25.02
2019-06-27T19:22:31.110Z,24.88
2019-06-27T19:25:01.191Z,24.73
2019-06-27T19:27:29.591Z,24.59
2019-06-27T19:29:58.563Z,24.46
2019-06-27T19:32:26.933Z,24.28
2019-06-27T19:34:55.378Z,24.08
2019-06-27T19:37:23.739Z,23.97
2019-06-27T19:39:52.174Z,23.78
2019-06-27T19:42:20.590Z,23.63
2019-06-27T19:44:48.992Z,23.45
2019-06-27T19:47:17.400Z,23.32
2019-06-27T19:49:45.795Z,23.16
2019-06-27T19:52:14.226Z,22.96
2019-06-27T19:54:42.641Z,22.74
2019-06-27T19:57:11.043Z,22.54
2019-06-27T19:59:39.452Z,22.36
2019-06-27T20:02:08.330Z,22.22
2019-06-27T20:04:36.775Z,22.07
2019-06-27T20:07:05.243Z,21.96
2019-06-27T20:09:33.651Z,21.85
2019-06-27T20:12:02.203Z,21.75
2019-06-27T20:14:30.677Z,21.66
2019-06-27T20:16:59.093Z,21.61
2019-06-27T20:19:27.495Z,21.43
2019-06-27T20:21:55.910Z,21.43
2019-06-27T20:24:24.390Z,21.36
2019-06-27T20:26:52.785Z,21.29
2019-06-27T20:29:21.217Z,21.20
2019-06-27T20:31:49.621Z,21.12
2019-06-27T20:34:18.029Z,21.02
2019-06-27T20:36:46.860Z,20.93
2019-06-27T20:39:15.263Z,20.85
2019-06-27T20:41:43.669Z,20.75
2019-06-27T20:44:12.075Z,20.67
2019-06-27T20:46:40.490Z,20.60
2019-06-27T20:49:08.986Z,20.53
2019-06-27T20:51:37.386Z,20.43
2019-06-27T20:54:05.784Z,20.34
2019-06-27T20:56:34.203Z,20.23
2019-06-27T20:59:02.608Z,20.13
2019-06-27T21:01:31.858Z,20.05
2019-06-27T21:04:00.498Z,19.99
2019-06-27T21:06:28.864Z,19.93
2019-06-27T21:08:57.260Z,19.86
2019-06-27T21:11:25.666Z,19.74
2019-06-27T21:13:54.085Z,19.62
2019-06-27T21:16:22.483Z,19.48
2019-06-27T21:18:52.347Z,19.41
2019-06-27T21:21:21.029Z,19.35
2019-06-27T21:23:49.447Z,19.36
2019-06-27T21:26:17.852Z,19.34
2019-06-27T21:28:46.253Z,19.27
2019-06-27T21:31:14.686Z,19.24
2019-06-27T21:33:43.101Z,19.30
2019-06-27T21:36:11.511Z,19.31
2019-06-27T21:38:39.910Z,19.26
2019-06-27T21:41:08.317Z,19.21
2019-06-27T21:43:36.716Z,19.14
2019-06-27T21:46:05.324Z,19.08
2019-06-27T21:48:33.720Z,19.02
2019-06-27T21:51:02.130Z,18.95
2019-06-27T21:53:30.540Z,18.88
2019-06-27T21:55:58.953Z,18.77
2019-06-27T21:58:27.367Z,18.67
2019-06-27T22:00:55.886Z,18.56
2019-06-27T22:03:24.351Z,18.45
2019-06-27T22:05:52.757Z,18.42
2019-06-27T22:08:21.199Z,18.37
2019-06-27T22:10:49.611Z,18.29
2019-06-27T22:13:18.017Z,18.25
2019-06-27T22:15:46.451Z,18.19
2019-06-27T22:18:14.871Z,18.18
2019-06-27T22:20:43.260Z,18.14
2019-06-27T22:23:11.673Z,18.10
2019-06-27T22:25:41.114Z,18.05
2019-06-27T22:28:09.786Z,17.96
2019-06-27T22:30:38.204Z,17.83
2019-06-27T22:33:06.571Z,17.74
2019-06-27T22:35:35.061Z,17.68
2019-06-27T22:38:22.287Z,17.57
2019-06-27T22:41:08.447Z,17.42
2019-06-27T22:43:54.962Z,17.35
2019-06-27T22:46:41.384Z,17.27
2019-06-27T22:49:09.568Z,17.23
2019-06-27T22:51:58.019Z,17.30
2019-06-27T22:54:28.075Z,17.42
2019-06-27T22:56:56.493Z,17.43
2019-06-27T22:59:24.898Z,17.33
2019-06-27T23:01:53.311Z,17.18
2019-06-27T23:04:21.719Z,17.03
2019-06-27T23:06:50.120Z,16.93
2019-06-27T23:09:18.526Z,16.86
2019-06-27T23:11:46.935Z,16.78
2019-06-27T23:14:15.334Z,16.68
2019-06-27T23:16:43.754Z,16.57
2019-06-27T23:19:12.155Z,16.52
2019-06-27T23:21:40.820Z,16.41
2019-06-27T23:24:09.237Z,16.33
2019-06-27T23:26:37.647Z,16.29
2019-06-27T23:29:06.072Z,16.26
2019-06-27T23:31:34.474Z,16.20
2019-06-27T23:34:02.882Z,16.11
2019-06-27T23:36:31.303Z,16.02
2019-06-27T23:38:59.691Z,15.95
2019-06-27T23:41:28.110Z,15.91
2019-06-27T23:43:56.510Z,15.85
2019-06-27T23:46:43.353Z,15.73
2019-06-27T23:49:12.401Z,15.67
2019-06-27T23:51:41.004Z,15.65
2019-06-27T23:54:10.459Z,15.64
2019-06-27T23:56:38.862Z,15.62
2019-06-27T23:59:07.268Z,15.62
